sensor_id;sensor_type;location;lat;lon;timestamp;P1;durP1;ratioP1;P2;durP2;ratioP2
5493;SDS011;2769;49.864;8.656;2023-04-09T00:02:13;24.90;;;12.37;;
5493;SDS011;2769;49.864;8.656;2023-04-09T00:04:43;21.53;;;10.63;;
5493;SDS011;2769;49.864;8.656;2023-04-09T00:07:11;20.63;;;11.00;;
5493;SDS011;2769;49.864;8.656;2023-04-09T00:09:39;18.70;;;10.30;;
5493;SDS011;2769;49.864;8.656;2023-04-09T00:12:07;17.90;;;9.83;;
5493;SDS011;2769;49.864;8.656;2023-04-09T00:14:35;18.63;;;10.43;;
5493;SDS011;2769;49.864;8.656;2023-04-09T00:17:04;26.10;;;10.87;;
5493;SDS011;2769;49.864;8.656;2023-04-09T00:19:32;24.53;;;11.47;;
5493;SDS011;2769;49.864;8.656;2023-04-09T00:22:01;20.20;;;9.77;;
5493;SDS011;2769;49.864;8.656;2023-04-09T00:24:29;22.40;;;11.63;;
5493;SDS011;2769;49.864;8.656;2023-04-09T00:26:57;23.17;;;11.40;;
5493;SDS011;2769;49.864;8.656;2023-04-09T00:29:26;17.30;;;10.60;;
5493;SDS011;2769;49.864;8.656;2023-04-09T00:31:54;26.17;;;11.87;;
5493;SDS011;2769;49.864;8.656;2023-04-09T00:34:22;22.27;;;11.63;;
5493;SDS011;2769;49.864;8.656;2023-04-09T00:36:50;26.10;;;11.87;;
5493;SDS011;2769;49.864;8.656;2023-04-09T00:39:20;26.63;;;13.90;;
5493;SDS011;2769;49.864;8.656;2023-04-09T00:41:48;27.90;;;13.17;;
5493;SDS011;2769;49.864;8.656;2023-04-09T00:44:15;25.33;;;12.63;;
5493;SDS011;2769;49.864;8.656;2023-04-09T00:46:44;25.33;;;13.10;;
5493;SDS011;2769;49.864;8.656;2023-04-09T00:49:12;23.23;;;12.10;;
5493;SDS011;2769;49.864;8.656;2023-04-09T00:51:40;26.03;;;13.13;;
5493;SDS011;2769;49.864;8.656;2023-04-09T00:54:07;27.83;;;12.40;;
5493;SDS011;2769;49.864;8.656;2023-04-09T00:56:37;24.50;;;12.13;;
5493;SDS011;2769;49.864;8.656;2023-04-09T00:59:05;23.73;;;11.70;;
5493;SDS011;2769;49.864;8.656;2023-04-09T01:01:34;24.30;;;11.53;;
5493;SDS011;2769;49.864;8.656;2023-04-09T01:04:02;24.37;;;10.83;;
5493;SDS011;2769;49.864;8.656;2023-04-09T01:06:32;26.20;;;12.27;;
5493;SDS011;2769;49.864;8.656;2023-04-09T01:09:07;20.57;;;10.63;;
5493;SDS011;2769;49.864;8.656;2023-04-09T01:11:42;21.30;;;11.53;;
5493;SDS011;2769;49.864;8.656;2023-04-09T01:14:13;20.40;;;10.00;;
5493;SDS011;2769;49.864;8.656;2023-04-09T01:17:11;18.03;;;9.77;;
5493;SDS011;2769;49.864;8.656;2023-04-09T01:19:43;17.77;;;9.37;;
5493;SDS011;2769;49.864;8.656;2023-04-09T01:22:30;15.20;;;8.53;;
5493;SDS011;2769;49.864;8.656;2023-04-09T01:25:06;16.80;;;9.60;;
5493;SDS011;2769;49.864;8.656;2023-04-09T01:27:45;15.63;;;9.03;;
5493;SDS011;2769;49.864;8.656;2023-04-09T01:30:22;16.47;;;8.70;;
5493;SDS011;2769;49.864;8.656;2023-04-09T01:32:50;15.80;;;9.13;;
5493;SDS011;2769;49.864;8.656;2023-04-09T01:35:19;12.83;;;8.30;;
5493;SDS011;2769;49.864;8.656;2023-04-09T01:37:47;14.10;;;7.77;;
5493;SDS011;2769;49.864;8.656;2023-04-09T01:40:15;13.03;;;8.67;;
5493;SDS011;2769;49.864;8.656;2023-04-09T01:42:43;13.80;;;8.90;;
5493;SDS011;2769;49.864;8.656;2023-04-09T01:45:12;13.50;;;8.07;;
5493;SDS011;2769;49.864;8.656;2023-04-09T01:47:43;12.20;;;8.57;;
5493;SDS011;2769;49.864;8.656;2023-04-09T01:50:11;12.20;;;8.27;;
5493;SDS011;2769;49.864;8.656;2023-04-09T01:52:39;10.17;;;7.57;;
5493;SDS011;2769;49.864;8.656;2023-04-09T01:55:07;10.20;;;7.30;;
5493;SDS011;2769;49.864;8.656;2023-04-09T01:57:35;11.30;;;7.47;;
5493;SDS011;2769;49.864;8.656;2023-04-09T02:00:03;11.83;;;8.80;;
5493;SDS011;2769;49.864;8.656;2023-04-09T02:02:44;12.30;;;8.40;;
5493;SDS011;2769;49.864;8.656;2023-04-09T02:05:15;10.00;;;7.73;;
5493;SDS011;2769;49.864;8.656;2023-04-09T02:07:46;14.30;;;7.83;;
5493;SDS011;2769;49.864;8.656;2023-04-09T02:10:17;12.13;;;8.20;;
5493;SDS011;2769;49.864;8.656;2023-04-09T02:12:47;11.03;;;7.87;;
5493;SDS011;2769;49.864;8.656;2023-04-09T02:15:16;12.47;;;7.70;;
5493;SDS011;2769;49.864;8.656;2023-04-09T02:17:47;16.77;;;9.57;;
5493;SDS011;2769;49.864;8.656;2023-04-09T02:20:15;12.73;;;7.50;;
5493;SDS011;2769;49.864;8.656;2023-04-09T02:22:44;11.60;;;7.80;;
5493;SDS011;2769;49.864;8.656;2023-04-09T02:25:12;12.57;;;8.47;;
5493;SDS011;2769;49.864;8.656;2023-04-09T02:27:41;12.63;;;9.10;;
5493;SDS011;2769;49.864;8.656;2023-04-09T02:30:09;14.10;;;8.27;;
5493;SDS011;2769;49.864;8.656;2023-04-09T02:32:37;13.47;;;8.17;;
5493;SDS011;2769;49.864;8.656;2023-04-09T02:35:07;10.83;;;7.77;;
5493;SDS011;2769;49.864;8.656;2023-04-09T02:37:35;10.67;;;8.07;;
5493;SDS011;2769;49.864;8.656;2023-04-09T02:40:03;13.23;;;8.63;;
5493;SDS011;2769;49.864;8.656;2023-04-09T02:42:32;14.47;;;8.83;;
5493;SDS011;2769;49.864;8.656;2023-04-09T02:45:00;13.43;;;9.00;;
5493;SDS011;2769;49.864;8.656;2023-04-09T02:47:29;13.97;;;8.73;;
5493;SDS011;2769;49.864;8.656;2023-04-09T02:49:57;12.93;;;8.60;;
5493;SDS011;2769;49.864;8.656;2023-04-09T02:52:32;13.67;;;8.40;;
5493;SDS011;2769;49.864;8.656;2023-04-09T02:54:59;13.40;;;8.57;;
5493;SDS011;2769;49.864;8.656;2023-04-09T02:57:27;12.77;;;8.13;;
5493;SDS011;2769;49.864;8.656;2023-04-09T02:59:55;10.97;;;8.20;;
5493;SDS011;2769;49.864;8.656;2023-04-09T03:02:23;12.13;;;8.70;;
5493;SDS011;2769;49.864;8.656;2023-04-09T03:04:51;14.20;;;8.30;;
5493;SDS011;2769;49.864;8.656;2023-04-09T03:07:19;13.23;;;8.43;;
5493;SDS011;2769;49.864;8.656;2023-04-09T03:09:48;12.50;;;9.07;;
5493;SDS011;2769;49.864;8.656;2023-04-09T03:12:16;10.57;;;8.20;;
5493;SDS011;2769;49.864;8.656;2023-04-09T03:14:44;11.60;;;8.33;;
5493;SDS011;2769;49.864;8.656;2023-04-09T03:17:12;12.80;;;7.90;;
5493;SDS011;2769;49.864;8.656;2023-04-09T03:19:40;14.87;;;9.00;;
5493;SDS011;2769;49.864;8.656;2023-04-09T03:22:08;11.30;;;8.27;;
5493;SDS011;2769;49.864;8.656;2023-04-09T03:24:36;15.23;;;9.50;;
5493;SDS011;2769;49.864;8.656;2023-04-09T03:27:06;12.83;;;9.00;;
5493;SDS011;2769;49.864;8.656;2023-04-09T03:29:34;12.23;;;8.10;;
5493;SDS011;2769;49.864;8.656;2023-04-09T03:32:02;11.53;;;8.47;;
5493;SDS011;2769;49.864;8.656;2023-04-09T03:34:30;14.13;;;8.90;;
5493;SDS011;2769;49.864;8.656;2023-04-09T03:36:59;13.43;;;8.53;;
5493;SDS011;2769;49.864;8.656;2023-04-09T03:39:29;13.10;;;9.13;;
5493;SDS011;2769;49.864;8.656;2023-04-09T03:41:57;14.90;;;8.50;;
5493;SDS011;2769;49.864;8.656;2023-04-09T03:44:31;13.37;;;9.27;;
5493;SDS011;2769;49.864;8.656;2023-04-09T03:47:05;13.27;;;9.30;;
5493;SDS011;2769;49.864;8.656;2023-04-09T03:49:35;13.20;;;8.23;;
5493;SDS011;2769;49.864;8.656;2023-04-09T03:52:25;13.57;;;8.80;;
5493;SDS011;2769;49.864;8.656;2023-04-09T03:55:01;13.33;;;9.17;;
5493;SDS011;2769;49.864;8.656;2023-04-09T03:57:30;14.03;;;9.10;;
5493;SDS011;2769;49.864;8.656;2023-04-09T03:59:59;15.27;;;9.10;;
5493;SDS011;2769;49.864;8.656;2023-04-09T04:02:37;14.30;;;8.70;;
5493;SDS011;2769;49.864;8.656;2023-04-09T04:05:07;12.97;;;8.93;;
5493;SDS011;2769;49.864;8.656;2023-04-09T04:07:42;16.20;;;9.60;;
5493;SDS011;2769;49.864;8.656;2023-04-09T04:10:15;14.80;;;9.97;;
5493;SDS011;2769;49.864;8.656;2023-04-09T04:12:45;15.07;;;9.30;;
5493;SDS011;2769;49.864;8.656;2023-04-09T04:15:21;14.33;;;9.10;;
5493;SDS011;2769;49.864;8.656;2023-04-09T04:17:53;15.07;;;9.57;;
5493;SDS011;2769;49.864;8.656;2023-04-09T04:20:36;14.33;;;9.67;;
5493;SDS011;2769;49.864;8.656;2023-04-09T04:23:09;15.87;;;9.50;;
5493;SDS011;2769;49.864;8.656;2023-04-09T04:25:44;14.33;;;9.50;;
5493;SDS011;2769;49.864;8.656;2023-04-09T04:28:16;14.30;;;9.60;;
5493;SDS011;2769;49.864;8.656;2023-04-09T04:30:46;16.70;;;10.13;;
5493;SDS011;2769;49.864;8.656;2023-04-09T04:33:13;13.70;;;8.80;;
5493;SDS011;2769;49.864;8.656;2023-04-09T04:35:47;16.50;;;10.27;;
5493;SDS011;2769;49.864;8.656;2023-04-09T04:38:32;16.73;;;10.20;;
5493;SDS011;2769;49.864;8.656;2023-04-09T04:41:04;14.60;;;8.83;;
5493;SDS011;2769;49.864;8.656;2023-04-09T04:43:35;17.80;;;10.57;;
5493;SDS011;2769;49.864;8.656;2023-04-09T04:46:05;16.80;;;10.47;;
5493;SDS011;2769;49.864;8.656;2023-04-09T04:48:33;17.37;;;11.50;;
5493;SDS011;2769;49.864;8.656;2023-04-09T04:51:01;17.43;;;10.13;;
5493;SDS011;2769;49.864;8.656;2023-04-09T04:53:39;16.40;;;10.37;;
5493;SDS011;2769;49.864;8.656;2023-04-09T04:56:11;17.30;;;10.87;;
5493;SDS011;2769;49.864;8.656;2023-04-09T04:58:46;17.30;;;10.40;;
5493;SDS011;2769;49.864;8.656;2023-04-09T05:01:18;15.50;;;10.30;;
5493;SDS011;2769;49.864;8.656;2023-04-09T05:03:46;18.43;;;11.30;;
5493;SDS011;2769;49.864;8.656;2023-04-09T05:06:30;18.20;;;10.70;;
5493;SDS011;2769;49.864;8.656;2023-04-09T05:09:03;17.67;;;11.07;;
5493;SDS011;2769;49.864;8.656;2023-04-09T05:11:39;17.63;;;11.40;;
5493;SDS011;2769;49.864;8.656;2023-04-09T05:14:15;17.60;;;11.50;;
5493;SDS011;2769;49.864;8.656;2023-04-09T05:16:45;21.10;;;12.20;;
5493;SDS011;2769;49.864;8.656;2023-04-09T05:19:14;18.63;;;12.40;;
5493;SDS011;2769;49.864;8.656;2023-04-09T05:21:42;20.80;;;12.63;;
5493;SDS011;2769;49.864;8.656;2023-04-09T05:24:13;23.30;;;13.33;;
5493;SDS011;2769;49.864;8.656;2023-04-09T05:26:41;23.50;;;13.30;;
5493;SDS011;2769;49.864;8.656;2023-04-09T05:29:09;21.57;;;13.37;;
5493;SDS011;2769;49.864;8.656;2023-04-09T05:31:37;21.53;;;13.20;;
5493;SDS011;2769;49.864;8.656;2023-04-09T05:34:12;23.80;;;13.87;;
5493;SDS011;2769;49.864;8.656;2023-04-09T05:36:43;21.73;;;12.80;;
5493;SDS011;2769;49.864;8.656;2023-04-09T05:39:11;21.70;;;12.80;;
5493;SDS011;2769;49.864;8.656;2023-04-09T05:41:39;19.70;;;12.10;;
5493;SDS011;2769;49.864;8.656;2023-04-09T05:44:22;23.20;;;13.40;;
5493;SDS011;2769;49.864;8.656;2023-04-09T05:46:55;23.70;;;13.20;;
5493;SDS011;2769;49.864;8.656;2023-04-09T05:49:31;20.20;;;12.53;;
5493;SDS011;2769;49.864;8.656;2023-04-09T05:52:01;20.87;;;12.83;;
5493;SDS011;2769;49.864;8.656;2023-04-09T05:54:30;20.20;;;12.97;;
5493;SDS011;2769;49.864;8.656;2023-04-09T05:56:59;21.50;;;12.97;;
5493;SDS011;2769;49.864;8.656;2023-04-09T05:59:29;24.10;;;13.00;;
5493;SDS011;2769;49.864;8.656;2023-04-09T06:01:58;20.97;;;12.57;;
5493;SDS011;2769;49.864;8.656;2023-04-09T06:04:26;20.00;;;13.13;;
5493;SDS011;2769;49.864;8.656;2023-04-09T06:06:56;25.97;;;13.73;;
5493;SDS011;2769;49.864;8.656;2023-04-09T06:09:25;19.53;;;12.73;;
5493;SDS011;2769;49.864;8.656;2023-04-09T06:11:53;21.77;;;12.60;;
5493;SDS011;2769;49.864;8.656;2023-04-09T06:14:23;21.47;;;13.03;;
5493;SDS011;2769;49.864;8.656;2023-04-09T06:16:51;20.50;;;12.47;;
5493;SDS011;2769;49.864;8.656;2023-04-09T06:19:18;19.50;;;12.50;;
5493;SDS011;2769;49.864;8.656;2023-04-09T06:21:46;19.17;;;12.67;;
5493;SDS011;2769;49.864;8.656;2023-04-09T06:24:16;19.80;;;11.83;;
5493;SDS011;2769;49.864;8.656;2023-04-09T06:26:43;21.23;;;12.70;;
5493;SDS011;2769;49.864;8.656;2023-04-09T06:29:11;19.20;;;13.07;;
5493;SDS011;2769;49.864;8.656;2023-04-09T06:31:39;22.83;;;13.77;;
5493;SDS011;2769;49.864;8.656;2023-04-09T06:34:07;18.53;;;13.10;;
5493;SDS011;2769;49.864;8.656;2023-04-09T06:36:36;19.83;;;13.37;;
5493;SDS011;2769;49.864;8.656;2023-04-09T06:39:05;20.00;;;13.07;;
5493;SDS011;2769;49.864;8.656;2023-04-09T06:41:35;21.33;;;13.30;;
5493;SDS011;2769;49.864;8.656;2023-04-09T06:44:11;23.27;;;14.47;;
5493;SDS011;2769;49.864;8.656;2023-04-09T06:46:39;22.27;;;14.00;;
5493;SDS011;2769;49.864;8.656;2023-04-09T06:49:07;21.00;;;14.60;;
5493;SDS011;2769;49.864;8.656;2023-04-09T06:51:35;24.57;;;14.83;;
5493;SDS011;2769;49.864;8.656;2023-04-09T06:54:02;20.87;;;14.10;;
5493;SDS011;2769;49.864;8.656;2023-04-09T06:56:31;25.03;;;15.23;;
5493;SDS011;2769;49.864;8.656;2023-04-09T06:59:00;22.17;;;14.73;;
5493;SDS011;2769;49.864;8.656;2023-04-09T07:01:28;23.93;;;14.80;;
5493;SDS011;2769;49.864;8.656;2023-04-09T07:03:57;21.53;;;14.13;;
5493;SDS011;2769;49.864;8.656;2023-04-09T07:06:24;25.50;;;14.77;;
5493;SDS011;2769;49.864;8.656;2023-04-09T07:08:52;22.00;;;14.03;;
5493;SDS011;2769;49.864;8.656;2023-04-09T07:11:21;21.17;;;14.13;;
5493;SDS011;2769;49.864;8.656;2023-04-09T07:13:49;21.60;;;14.60;;
5493;SDS011;2769;49.864;8.656;2023-04-09T07:16:18;23.23;;;14.67;;
5493;SDS011;2769;49.864;8.656;2023-04-09T07:18:46;23.83;;;15.97;;
5493;SDS011;2769;49.864;8.656;2023-04-09T07:21:15;22.60;;;15.57;;
5493;SDS011;2769;49.864;8.656;2023-04-09T07:23:43;27.53;;;16.10;;
5493;SDS011;2769;49.864;8.656;2023-04-09T07:26:11;26.93;;;16.33;;
5493;SDS011;2769;49.864;8.656;2023-04-09T07:28:39;22.30;;;14.97;;
5493;SDS011;2769;49.864;8.656;2023-04-09T07:31:07;26.33;;;15.70;;
5493;SDS011;2769;49.864;8.656;2023-04-09T07:33:37;26.00;;;15.87;;
5493;SDS011;2769;49.864;8.656;2023-04-09T07:36:05;24.90;;;15.60;;
5493;SDS011;2769;49.864;8.656;2023-04-09T07:38:34;22.67;;;15.70;;
5493;SDS011;2769;49.864;8.656;2023-04-09T07:41:02;23.20;;;15.60;;
5493;SDS011;2769;49.864;8.656;2023-04-09T07:43:29;21.30;;;14.67;;
5493;SDS011;2769;49.864;8.656;2023-04-09T07:45:57;22.33;;;15.83;;
5493;SDS011;2769;49.864;8.656;2023-04-09T07:48:25;24.20;;;15.53;;
5493;SDS011;2769;49.864;8.656;2023-04-09T07:50:56;20.07;;;14.73;;
5493;SDS011;2769;49.864;8.656;2023-04-09T07:53:24;20.60;;;14.53;;
5493;SDS011;2769;49.864;8.656;2023-04-09T07:55:52;23.67;;;15.00;;
5493;SDS011;2769;49.864;8.656;2023-04-09T07:58:20;21.90;;;15.40;;
5493;SDS011;2769;49.864;8.656;2023-04-09T08:00:48;21.27;;;15.20;;
5493;SDS011;2769;49.864;8.656;2023-04-09T08:03:19;22.70;;;15.50;;
5493;SDS011;2769;49.864;8.656;2023-04-09T08:05:48;20.73;;;14.30;;
5493;SDS011;2769;49.864;8.656;2023-04-09T08:08:17;22.50;;;15.93;;
5493;SDS011;2769;49.864;8.656;2023-04-09T08:10:45;22.00;;;14.30;;
5493;SDS011;2769;49.864;8.656;2023-04-09T08:13:13;22.87;;;14.57;;
5493;SDS011;2769;49.864;8.656;2023-04-09T08:15:41;19.07;;;13.37;;
5493;SDS011;2769;49.864;8.656;2023-04-09T08:18:09;21.10;;;14.73;;
5493;SDS011;2769;49.864;8.656;2023-04-09T08:20:37;20.00;;;14.97;;
5493;SDS011;2769;49.864;8.656;2023-04-09T08:23:10;20.63;;;15.27;;
5493;SDS011;2769;49.864;8.656;2023-04-09T08:25:40;17.43;;;13.33;;
5493;SDS011;2769;49.864;8.656;2023-04-09T08:28:07;20.33;;;15.40;;
5493;SDS011;2769;49.864;8.656;2023-04-09T08:30:36;20.47;;;14.50;;
5493;SDS011;2769;49.864;8.656;2023-04-09T08:33:03;20.03;;;14.60;;
5493;SDS011;2769;49.864;8.656;2023-04-09T08:35:32;19.40;;;13.53;;
5493;SDS011;2769;49.864;8.656;2023-04-09T08:38:00;19.63;;;12.97;;
5493;SDS011;2769;49.864;8.656;2023-04-09T08:40:28;23.10;;;15.20;;
5493;SDS011;2769;49.864;8.656;2023-04-09T08:43:03;21.63;;;15.07;;
5493;SDS011;2769;49.864;8.656;2023-04-09T08:45:32;18.27;;;14.13;;
5493;SDS011;2769;49.864;8.656;2023-04-09T08:48:00;18.93;;;14.20;;
5493;SDS011;2769;49.864;8.656;2023-04-09T08:50:29;18.03;;;13.80;;
5493;SDS011;2769;49.864;8.656;2023-04-09T08:52:57;17.10;;;13.13;;
5493;SDS011;2769;49.864;8.656;2023-04-09T08:55:25;17.37;;;13.10;;
5493;SDS011;2769;49.864;8.656;2023-04-09T08:57:53;18.83;;;13.67;;
5493;SDS011;2769;49.864;8.656;2023-04-09T09:00:23;17.97;;;14.03;;
5493;SDS011;2769;49.864;8.656;2023-04-09T09:03:00;17.10;;;13.50;;
5493;SDS011;2769;49.864;8.656;2023-04-09T09:05:36;17.90;;;13.20;;
5493;SDS011;2769;49.864;8.656;2023-04-09T09:08:06;17.40;;;13.83;;
5493;SDS011;2769;49.864;8.656;2023-04-09T09:10:37;17.93;;;12.90;;
5493;SDS011;2769;49.864;8.656;2023-04-09T09:13:16;15.30;;;12.43;;
5493;SDS011;2769;49.864;8.656;2023-04-09T09:15:46;17.83;;;14.23;;
5493;SDS011;2769;49.864;8.656;2023-04-09T09:18:16;16.93;;;12.90;;
5493;SDS011;2769;49.864;8.656;2023-04-09T09:20:45;16.40;;;13.40;;
5493;SDS011;2769;49.864;8.656;2023-04-09T09:23:12;18.00;;;13.67;;
5493;SDS011;2769;49.864;8.656;2023-04-09T09:25:40;17.87;;;13.47;;
5493;SDS011;2769;49.864;8.656;2023-04-09T09:28:09;14.47;;;11.50;;
5493;SDS011;2769;49.864;8.656;2023-04-09T09:30:38;13.80;;;12.03;;
5493;SDS011;2769;49.864;8.656;2023-04-09T09:33:09;14.83;;;12.63;;
5493;SDS011;2769;49.864;8.656;2023-04-09T09:35:46;13.60;;;11.90;;
5493;SDS011;2769;49.864;8.656;2023-04-09T09:38:16;12.67;;;10.70;;
5493;SDS011;2769;49.864;8.656;2023-04-09T09:40:44;12.90;;;11.27;;
5493;SDS011;2769;49.864;8.656;2023-04-09T09:43:13;14.23;;;10.97;;
5493;SDS011;2769;49.864;8.656;2023-04-09T09:45:41;13.40;;;10.43;;
5493;SDS011;2769;49.864;8.656;2023-04-09T09:48:11;11.60;;;9.87;;
5493;SDS011;2769;49.864;8.656;2023-04-09T09:50:39;13.67;;;10.77;;
5493;SDS011;2769;49.864;8.656;2023-04-09T09:53:09;10.37;;;9.20;;
5493;SDS011;2769;49.864;8.656;2023-04-09T09:55:42;11.83;;;10.50;;
5493;SDS011;2769;49.864;8.656;2023-04-09T09:58:13;11.63;;;10.13;;
5493;SDS011;2769;49.864;8.656;2023-04-09T10:00:43;13.00;;;9.67;;
5493;SDS011;2769;49.864;8.656;2023-04-09T10:03:19;10.03;;;8.87;;
5493;SDS011;2769;49.864;8.656;2023-04-09T10:05:48;9.40;;;8.30;;
5493;SDS011;2769;49.864;8.656;2023-04-09T10:08:18;11.00;;;8.73;;
5493;SDS011;2769;49.864;8.656;2023-04-09T10:10:48;9.97;;;8.33;;
5493;SDS011;2769;49.864;8.656;2023-04-09T10:13:17;10.00;;;8.33;;
5493;SDS011;2769;49.864;8.656;2023-04-09T10:15:48;12.33;;;10.40;;
5493;SDS011;2769;49.864;8.656;2023-04-09T10:18:17;11.77;;;10.00;;
5493;SDS011;2769;49.864;8.656;2023-04-09T10:20:47;12.50;;;9.83;;
5493;SDS011;2769;49.864;8.656;2023-04-09T10:23:18;11.60;;;10.10;;
5493;SDS011;2769;49.864;8.656;2023-04-09T10:25:51;13.53;;;10.97;;
5493;SDS011;2769;49.864;8.656;2023-04-09T10:28:20;14.10;;;10.37;;
5493;SDS011;2769;49.864;8.656;2023-04-09T10:30:49;16.37;;;10.77;;
5493;SDS011;2769;49.864;8.656;2023-04-09T10:33:22;12.17;;;9.90;;
5493;SDS011;2769;49.864;8.656;2023-04-09T10:35:52;10.90;;;9.37;;
5493;SDS011;2769;49.864;8.656;2023-04-09T10:38:33;12.07;;;9.37;;
5493;SDS011;2769;49.864;8.656;2023-04-09T10:41:11;12.70;;;9.17;;
5493;SDS011;2769;49.864;8.656;2023-04-09T10:43:42;10.20;;;9.00;;
5493;SDS011;2769;49.864;8.656;2023-04-09T10:46:26;14.57;;;9.50;;
5493;SDS011;2769;49.864;8.656;2023-04-09T10:49:09;10.00;;;8.50;;
5493;SDS011;2769;49.864;8.656;2023-04-09T10:51:39;10.33;;;9.20;;
5493;SDS011;2769;49.864;8.656;2023-04-09T10:57:11;9.93;;;8.43;;
5493;SDS011;2769;49.864;8.656;2023-04-09T10:59:44;10.70;;;8.97;;
5493;SDS011;2769;49.864;8.656;2023-04-09T11:05:18;7.63;;;6.83;;
5493;SDS011;2769;49.864;8.656;2023-04-09T11:07:52;7.90;;;7.10;;
5493;SDS011;2769;49.864;8.656;2023-04-09T11:10:22;7.20;;;6.50;;
5493;SDS011;2769;49.864;8.656;2023-04-09T11:12:49;8.30;;;7.40;;
5493;SDS011;2769;49.864;8.656;2023-04-09T11:15:19;7.93;;;6.90;;
5493;SDS011;2769;49.864;8.656;2023-04-09T11:17:47;7.73;;;6.93;;
5493;SDS011;2769;49.864;8.656;2023-04-09T11:20:16;8.90;;;7.93;;
5493;SDS011;2769;49.864;8.656;2023-04-09T11:22:48;8.60;;;7.47;;
5493;SDS011;2769;49.864;8.656;2023-04-09T11:25:17;7.93;;;7.23;;
5493;SDS011;2769;49.864;8.656;2023-04-09T11:27:46;7.07;;;6.40;;
5493;SDS011;2769;49.864;8.656;2023-04-09T11:30:14;7.93;;;6.90;;
5493;SDS011;2769;49.864;8.656;2023-04-09T11:32:42;7.43;;;6.60;;
5493;SDS011;2769;49.864;8.656;2023-04-09T11:35:10;8.13;;;7.40;;
5493;SDS011;2769;49.864;8.656;2023-04-09T11:37:43;7.80;;;7.00;;
5493;SDS011;2769;49.864;8.656;2023-04-09T11:40:15;9.03;;;7.20;;
5493;SDS011;2769;49.864;8.656;2023-04-09T11:42:43;7.97;;;7.17;;
5493;SDS011;2769;49.864;8.656;2023-04-09T11:45:14;7.90;;;7.10;;
5493;SDS011;2769;49.864;8.656;2023-04-09T11:47:42;8.80;;;7.90;;
5493;SDS011;2769;49.864;8.656;2023-04-09T11:50:12;8.17;;;6.60;;
5493;SDS011;2769;49.864;8.656;2023-04-09T11:52:43;6.77;;;5.87;;
5493;SDS011;2769;49.864;8.656;2023-04-09T11:55:11;7.03;;;6.17;;
5493;SDS011;2769;49.864;8.656;2023-04-09T11:57:50;6.93;;;6.27;;
5493;SDS011;2769;49.864;8.656;2023-04-09T12:00:19;6.67;;;6.07;;
5493;SDS011;2769;49.864;8.656;2023-04-09T12:02:50;6.60;;;6.00;;
5493;SDS011;2769;49.864;8.656;2023-04-09T12:05:27;7.53;;;6.27;;
5493;SDS011;2769;49.864;8.656;2023-04-09T12:07:58;6.77;;;6.13;;
5493;SDS011;2769;49.864;8.656;2023-04-09T12:10:27;7.20;;;6.50;;
5493;SDS011;2769;49.864;8.656;2023-04-09T12:12:59;7.10;;;6.50;;
5493;SDS011;2769;49.864;8.656;2023-04-09T12:15:30;8.33;;;7.53;;
5493;SDS011;2769;49.864;8.656;2023-04-09T12:17:58;10.20;;;7.17;;
5493;SDS011;2769;49.864;8.656;2023-04-09T12:20:28;7.67;;;6.87;;
5493;SDS011;2769;49.864;8.656;2023-04-09T12:22:58;9.53;;;7.10;;
5493;SDS011;2769;49.864;8.656;2023-04-09T12:25:28;7.57;;;6.40;;
5493;SDS011;2769;49.864;8.656;2023-04-09T12:27:56;6.03;;;5.43;;
5493;SDS011;2769;49.864;8.656;2023-04-09T12:30:24;5.93;;;5.43;;
5493;SDS011;2769;49.864;8.656;2023-04-09T12:32:53;8.30;;;7.00;;
5493;SDS011;2769;49.864;8.656;2023-04-09T12:35:21;7.07;;;6.37;;
5493;SDS011;2769;49.864;8.656;2023-04-09T12:37:49;6.60;;;6.00;;
5493;SDS011;2769;49.864;8.656;2023-04-09T12:40:19;7.77;;;6.97;;
5493;SDS011;2769;49.864;8.656;2023-04-09T12:42:47;9.07;;;5.60;;
5493;SDS011;2769;49.864;8.656;2023-04-09T12:45:16;6.03;;;5.43;;
5493;SDS011;2769;49.864;8.656;2023-04-09T12:47:45;5.77;;;5.27;;
5493;SDS011;2769;49.864;8.656;2023-04-09T12:50:13;7.37;;;6.67;;
5493;SDS011;2769;49.864;8.656;2023-04-09T12:52:42;6.87;;;6.17;;
5493;SDS011;2769;49.864;8.656;2023-04-09T12:55:13;7.03;;;6.43;;
5493;SDS011;2769;49.864;8.656;2023-04-09T12:57:43;6.20;;;5.60;;
5493;SDS011;2769;49.864;8.656;2023-04-09T13:00:12;6.70;;;6.10;;
5493;SDS011;2769;49.864;8.656;2023-04-09T13:02:41;5.77;;;5.27;;
5493;SDS011;2769;49.864;8.656;2023-04-09T13:05:09;6.00;;;5.53;;
5493;SDS011;2769;49.864;8.656;2023-04-09T13:07:37;6.17;;;5.67;;
5493;SDS011;2769;49.864;8.656;2023-04-09T13:10:08;6.20;;;5.70;;
5493;SDS011;2769;49.864;8.656;2023-04-09T13:12:36;6.33;;;5.83;;
5493;SDS011;2769;49.864;8.656;2023-04-09T13:15:05;5.73;;;5.23;;
5493;SDS011;2769;49.864;8.656;2023-04-09T13:17:34;5.47;;;5.07;;
5493;SDS011;2769;49.864;8.656;2023-04-09T13:20:02;5.43;;;4.93;;
5493;SDS011;2769;49.864;8.656;2023-04-09T13:22:30;5.20;;;4.80;;
5493;SDS011;2769;49.864;8.656;2023-04-09T13:24:58;5.40;;;5.03;;
5493;SDS011;2769;49.864;8.656;2023-04-09T13:27:26;5.30;;;4.90;;
5493;SDS011;2769;49.864;8.656;2023-04-09T13:29:53;5.20;;;4.80;;
5493;SDS011;2769;49.864;8.656;2023-04-09T13:32:23;6.27;;;5.77;;
5493;SDS011;2769;49.864;8.656;2023-04-09T13:34:51;6.10;;;5.50;;
5493;SDS011;2769;49.864;8.656;2023-04-09T13:37:19;6.10;;;5.60;;
5493;SDS011;2769;49.864;8.656;2023-04-09T13:39:48;6.03;;;5.53;;
5493;SDS011;2769;49.864;8.656;2023-04-09T13:42:16;6.50;;;5.90;;
5493;SDS011;2769;49.864;8.656;2023-04-09T13:44:44;5.73;;;5.23;;
5493;SDS011;2769;49.864;8.656;2023-04-09T13:47:12;6.10;;;5.60;;
5493;SDS011;2769;49.864;8.656;2023-04-09T13:49:42;6.83;;;6.10;;
5493;SDS011;2769;49.864;8.656;2023-04-09T13:52:10;5.53;;;5.10;;
5493;SDS011;2769;49.864;8.656;2023-04-09T13:54:38;6.50;;;5.90;;
5493;SDS011;2769;49.864;8.656;2023-04-09T13:57:07;5.67;;;5.17;;
5493;SDS011;2769;49.864;8.656;2023-04-09T13:59:35;5.67;;;5.20;;
5493;SDS011;2769;49.864;8.656;2023-04-09T14:02:04;5.50;;;5.00;;
5493;SDS011;2769;49.864;8.656;2023-04-09T14:04:32;5.57;;;5.13;;
5493;SDS011;2769;49.864;8.656;2023-04-09T14:07:01;5.80;;;5.30;;
5493;SDS011;2769;49.864;8.656;2023-04-09T14:09:29;6.40;;;5.80;;
5493;SDS011;2769;49.864;8.656;2023-04-09T14:11:57;5.33;;;4.83;;
5493;SDS011;2769;49.864;8.656;2023-04-09T14:14:25;5.23;;;4.83;;
5493;SDS011;2769;49.864;8.656;2023-04-09T14:16:53;5.37;;;4.90;;
5493;SDS011;2769;49.864;8.656;2023-04-09T14:19:21;5.70;;;5.20;;
5493;SDS011;2769;49.864;8.656;2023-04-09T14:21:49;6.00;;;5.50;;
5493;SDS011;2769;49.864;8.656;2023-04-09T14:24:20;6.13;;;5.53;;
5493;SDS011;2769;49.864;8.656;2023-04-09T14:26:48;5.73;;;5.33;;
5493;SDS011;2769;49.864;8.656;2023-04-09T14:29:19;6.00;;;5.40;;
5493;SDS011;2769;49.864;8.656;2023-04-09T14:31:47;5.40;;;5.00;;
5493;SDS011;2769;49.864;8.656;2023-04-09T14:34:15;5.47;;;5.00;;
5493;SDS011;2769;49.864;8.656;2023-04-09T14:36:43;5.20;;;4.80;;
5493;SDS011;2769;49.864;8.656;2023-04-09T14:39:11;5.13;;;4.73;;
5493;SDS011;2769;49.864;8.656;2023-04-09T14:41:40;4.47;;;4.17;;
5493;SDS011;2769;49.864;8.656;2023-04-09T14:44:08;4.43;;;4.13;;
5493;SDS011;2769;49.864;8.656;2023-04-09T14:46:36;5.40;;;4.90;;
5493;SDS011;2769;49.864;8.656;2023-04-09T14:49:04;5.53;;;5.03;;
5493;SDS011;2769;49.864;8.656;2023-04-09T14:51:32;4.90;;;4.30;;
5493;SDS011;2769;49.864;8.656;2023-04-09T14:54:00;4.00;;;3.70;;
5493;SDS011;2769;49.864;8.656;2023-04-09T14:56:28;4.53;;;4.20;;
5493;SDS011;2769;49.864;8.656;2023-04-09T14:58:57;4.00;;;3.70;;
5493;SDS011;2769;49.864;8.656;2023-04-09T15:01:25;4.30;;;4.00;;
5493;SDS011;2769;49.864;8.656;2023-04-09T15:03:53;4.47;;;4.07;;
5493;SDS011;2769;49.864;8.656;2023-04-09T15:06:22;4.07;;;3.77;;
5493;SDS011;2769;49.864;8.656;2023-04-09T15:08:50;4.40;;;4.00;;
5493;SDS011;2769;49.864;8.656;2023-04-09T15:11:18;3.77;;;3.53;;
5493;SDS011;2769;49.864;8.656;2023-04-09T15:13:48;3.63;;;3.33;;
5493;SDS011;2769;49.864;8.656;2023-04-09T15:16:22;3.50;;;3.30;;
5493;SDS011;2769;49.864;8.656;2023-04-09T15:18:52;3.70;;;3.50;;
5493;SDS011;2769;49.864;8.656;2023-04-09T15:21:22;3.43;;;3.13;;
5493;SDS011;2769;49.864;8.656;2023-04-09T15:23:51;4.40;;;4.10;;